Time;durP1;ratioP1;P1;durP2;ratioP2;P2;SDS_P1;SDS_P2;PMS_P1;PMS_P2;Temp;Humidity;BMP_temperature;BMP_pressure;BME280_temperature;BME280_humidity;BME280_pressure;Samples;Min_cycle;Max_cycle;Signal;HPM_P1;HPM_P2
2023/05/29 00:02:15;;;;;;;7.40;1.05;;;11.20;99.90;;;;;;5003950;28;20118;-77
2023/05/29 00:04:40;;;;;;;6.57;0.73;;;11.20;99.90;;;;;;5003514;28;20463;-76
2023/05/29 00:07:06;;;;;;;9.40;0.90;;;11.20;99.90;;;;;;5004123;28;20053;-78
2023/05/29 00:09:32;;;;;;;6.88;0.73;;;11.10;99.90;;;;;;5004323;28;20026;-78
2023/05/29 00:11:57;;;;;;;7.28;0.75;;;11.10;99.90;;;;;;5002185;28;20099;-78
2023/05/29 00:14:23;;;;;;;6.82;0.60;;;11.00;99.90;;;;;;5002875;28;20046;-78
2023/05/29 00:16:50;;;;;;;11.88;0.90;;;11.00;99.90;;;;;;5002194;28;20041;-78
2023/05/29 00:19:16;;;;;;;7.82;0.98;;;11.00;99.90;;;;;;5018394;28;20382;-77
2023/05/29 00:21:43;;;;;;;10.68;1.05;;;10.90;99.90;;;;;;5006551;28;20072;-79
2023/05/29 00:24:09;;;;;;;7.95;0.60;;;10.90;99.90;;;;;;5005844;28;20026;-79
2023/05/29 00:26:35;;;;;;;13.07;1.10;;;10.90;99.90;;;;;;5005215;28;20037;-79
2023/05/29 00:29:01;;;;;;;5.10;0.80;;;10.80;99.90;;;;;;5007620;28;20037;-78
2023/05/29 00:31:27;;;;;;;4.55;0.68;;;10.80;99.90;;;;;;5005393;28;20025;-76
2023/05/29 00:33:53;;;;;;;7.43;0.80;;;10.80;99.90;;;;;;4989337;28;20033;-78
2023/05/29 00:36:19;;;;;;;12.15;1.52;;;10.80;99.90;;;;;;5013191;28;20036;-78
2023/05/29 00:38:44;;;;;;;7.57;1.35;;;10.70;99.90;;;;;;5007569;28;20060;-79
2023/05/29 00:41:16;;;;;;;7.25;0.60;;;10.70;99.90;;;;;;5009789;28;20590;-76
2023/05/29 00:43:43;;;;;;;6.18;0.63;;;10.70;99.90;;;;;;5016043;28;20088;-80
2023/05/29 00:46:13;;;;;;;9.45;0.93;;;10.60;99.90;;;;;;4992541;28;20053;-77
2023/05/29 00:48:41;;;;;;;6.38;0.60;;;10.50;99.90;;;;;;5009103;28;20030;-77
2023/05/29 00:51:07;;;;;;;8.70;0.82;;;10.50;99.90;;;;;;4992528;28;20120;-77
2023/05/29 00:53:34;;;;;;;5.70;0.60;;;10.40;99.90;;;;;;5003762;28;20045;-76
2023/05/29 00:56:01;;;;;;;4.93;0.90;;;10.50;99.90;;;;;;5008090;28;20076;-77
2023/05/29 00:58:27;;;;;;;2.53;0.32;;;10.50;99.90;;;;;;4987751;28;20034;-75
2023/05/29 01:00:53;;;;;;;3.95;0.50;;;10.50;99.90;;;;;;5007736;28;20075;-76
2023/05/29 01:03:20;;;;;;;8.23;0.75;;;10.30;99.90;;;;;;4994146;28;20495;-76
2023/05/29 01:05:46;;;;;;;4.30;0.50;;;10.40;99.90;;;;;;5021305;28;20495;-76
2023/05/29 01:08:14;;;;;;;2.67;0.55;;;10.40;99.90;;;;;;5007132;28;20026;-76
2023/05/29 01:10:42;;;;;;;6.10;1.02;;;10.30;99.90;;;;;;5023191;28;20061;-76
2023/05/29 01:13:24;;;;;;;6.35;0.70;;;10.30;99.90;;;;;;5006183;28;20055;-76
2023/05/29 01:15:54;;;;;;;7.00;0.45;;;10.30;99.90;;;;;;5007190;28;20033;-76
2023/05/29 01:18:34;;;;;;;9.73;0.60;;;10.20;99.90;;;;;;4992236;28;20025;-76
2023/05/29 01:21:08;;;;;;;3.15;0.35;;;10.20;99.90;;;;;;5001892;28;20069;-78
2023/05/29 01:23:47;;;;;;;5.30;0.70;;;10.20;99.90;;;;;;5004786;28;20030;-76
2023/05/29 01:26:44;;;;;;;4.88;0.40;;;10.20;99.90;;;;;;5008816;28;20029;-75
2023/05/29 01:29:12;;;;;;;3.65;0.30;;;10.10;99.90;;;;;;5019191;28;20034;-76
2023/05/29 01:31:41;;;;;;;7.47;0.50;;;10.10;99.90;;;;;;5006458;28;20116;-76
2023/05/29 01:34:07;;;;;;;6.60;0.60;;;10.10;99.90;;;;;;5009572;28;20493;-75
2023/05/29 01:36:33;;;;;;;7.10;0.70;;;10.00;99.90;;;;;;5004322;28;20033;-75
2023/05/29 01:39:00;;;;;;;3.83;0.40;;;10.00;99.90;;;;;;5006454;28;20279;-76
2023/05/29 01:41:26;;;;;;;5.07;0.50;;;9.90;99.90;;;;;;4991679;28;20482;-76
2023/05/29 01:43:53;;;;;;;6.68;0.60;;;9.90;99.90;;;;;;4993123;28;20030;-76
2023/05/29 01:46:20;;;;;;;6.72;0.73;;;9.90;99.90;;;;;;5009013;28;20041;-79
2023/05/29 01:48:46;;;;;;;3.88;0.45;;;9.80;99.90;;;;;;4991602;28;20030;-79
2023/05/29 01:51:13;;;;;;;9.38;0.70;;;9.90;99.90;;;;;;5019293;28;20027;-79
2023/05/29 01:53:40;;;;;;;9.88;0.80;;;9.80;99.90;;;;;;5003465;28;20096;-79
2023/05/29 01:56:06;;;;;;;6.50;0.73;;;9.80;99.90;;;;;;4983477;28;20037;-79
2023/05/29 01:58:34;;;;;;;13.65;0.90;;;9.70;99.90;;;;;;5008971;28;20026;-78
2023/05/29 02:01:01;;;;;;;11.07;0.70;;;9.80;99.90;;;;;;5000779;28;20022;-79
2023/05/29 02:03:30;;;;;;;9.35;0.70;;;9.70;99.90;;;;;;5020803;28;20168;-78
2023/05/29 02:05:58;;;;;;;6.93;0.60;;;9.70;99.90;;;;;;4991868;28;20378;-80
2023/05/29 02:08:24;;;;;;;11.20;0.85;;;9.70;99.90;;;;;;5008766;28;20030;-79
2023/05/29 02:10:50;;;;;;;9.70;0.70;;;9.60;99.90;;;;;;5003514;28;20026;-79
2023/05/29 02:13:16;;;;;;;13.25;0.90;;;9.60;99.90;;;;;;5007119;28;20064;-76
2023/05/29 02:15:42;;;;;;;8.68;0.77;;;9.50;99.90;;;;;;4990675;28;20025;-76
2023/05/29 02:18:12;;;;;;;12.63;0.95;;;9.50;99.90;;;;;;5000637;28;20045;-75
2023/05/29 02:20:38;;;;;;;9.50;0.70;;;9.50;99.90;;;;;;5003322;28;20083;-76
2023/05/29 02:23:03;;;;;;;7.18;0.60;;;9.60;99.90;;;;;;5004685;28;20513;-75
2023/05/29 02:25:29;;;;;;;7.20;0.68;;;9.50;99.90;;;;;;5008336;28;20034;-75
2023/05/29 02:27:55;;;;;;;7.25;0.50;;;9.40;99.90;;;;;;5003337;28;20030;-75
2023/05/29 02:30:20;;;;;;;9.05;0.70;;;9.40;99.90;;;;;;5008886;28;20021;-75
2023/05/29 02:32:46;;;;;;;7.68;0.88;;;9.40;99.90;;;;;;5005129;28;20111;-77
2023/05/29 02:35:17;;;;;;;5.95;0.60;;;9.40;99.90;;;;;;4990668;28;20066;-75
2023/05/29 02:37:42;;;;;;;11.80;0.85;;;9.50;99.90;;;;;;5007692;28;20111;-76
2023/05/29 02:40:09;;;;;;;9.82;0.55;;;9.40;99.90;;;;;;4988097;28;20089;-75
2023/05/29 02:42:37;;;;;;;6.68;0.60;;;9.40;99.90;;;;;;4990855;28;20052;-76
2023/05/29 02:45:04;;;;;;;4.53;0.50;;;9.40;99.90;;;;;;5002853;28;20025;-75
2023/05/29 02:47:29;;;;;;;10.98;0.80;;;9.40;99.90;;;;;;5003651;28;20027;-76
2023/05/29 02:49:56;;;;;;;5.32;0.50;;;9.30;99.90;;;;;;5020241;28;20360;-75
2023/05/29 02:52:23;;;;;;;11.68;0.65;;;9.40;99.90;;;;;;4991653;28;20034;-76
2023/05/29 02:54:49;;;;;;;5.93;0.55;;;9.40;99.90;;;;;;4989505;28;20380;-76
2023/05/29 02:57:15;;;;;;;5.22;0.70;;;9.40;99.90;;;;;;5005391;28;20018;-77
2023/05/29 02:59:41;;;;;;;6.47;1.10;;;9.40;99.90;;;;;;5021073;28;20440;-75
2023/05/29 03:02:07;;;;;;;4.22;0.38;;;9.40;99.90;;;;;;5007701;28;20046;-76
2023/05/29 03:04:33;;;;;;;7.78;0.60;;;9.30;99.90;;;;;;4998062;28;20113;-76
2023/05/29 03:06:58;;;;;;;6.80;0.60;;;9.20;99.90;;;;;;5003991;28;20100;-77
2023/05/29 03:09:24;;;;;;;9.85;0.80;;;9.20;99.90;;;;;;5005509;28;20502;-76
2023/05/29 03:11:50;;;;;;;5.78;0.50;;;9.20;99.90;;;;;;5020162;28;20442;-76
2023/05/29 03:14:16;;;;;;;6.68;0.43;;;9.20;99.90;;;;;;5005810;28;20050;-77
2023/05/29 03:16:43;;;;;;;9.07;0.60;;;9.20;99.90;;;;;;5007254;28;20026;-76
2023/05/29 03:19:10;;;;;;;5.53;0.47;;;9.10;99.90;;;;;;4998215;28;20037;-76
2023/05/29 03:21:36;;;;;;;5.43;0.60;;;9.10;99.90;;;;;;4990523;28;20038;-76
2023/05/29 03:24:05;;;;;;;5.50;0.50;;;9.10;99.90;;;;;;5007638;28;20490;-76
2023/05/29 03:26:33;;;;;;;9.07;0.60;;;9.10;99.90;;;;;;5003015;28;20018;-79
2023/05/29 03:28:58;;;;;;;9.00;0.75;;;9.00;99.90;;;;;;5004231;28;20125;-79
2023/05/29 03:31:24;;;;;;;10.07;0.63;;;9.00;99.90;;;;;;5006691;28;20052;-79
2023/05/29 03:33:50;;;;;;;6.47;0.65;;;9.00;99.90;;;;;;4987104;28;20034;-77
2023/05/29 03:36:20;;;;;;;15.02;1.60;;;9.00;99.90;;;;;;4998271;28;20062;-75
2023/05/29 03:38:47;;;;;;;11.50;0.60;;;9.00;99.90;;;;;;5020703;28;20549;-76
2023/05/29 03:41:12;;;;;;;7.70;0.50;;;9.00;99.90;;;;;;4990298;28;20026;-75
2023/05/29 03:43:38;;;;;;;9.77;0.90;;;9.00;99.90;;;;;;5003093;28;20041;-78
2023/05/29 03:46:04;;;;;;;10.07;1.10;;;8.90;99.90;;;;;;5002923;28;20026;-75
2023/05/29 03:48:32;;;;;;;9.35;0.90;;;8.90;99.90;;;;;;4989487;28;20032;-77
2023/05/29 03:50:58;;;;;;;8.10;0.95;;;8.90;99.90;;;;;;5005063;28;20038;-75
2023/05/29 03:53:30;;;;;;;5.65;0.52;;;9.00;99.90;;;;;;5001300;28;20105;-75
2023/05/29 03:55:56;;;;;;;4.35;0.70;;;8.90;99.90;;;;;;5019909;28;20034;-75
2023/05/29 03:58:22;;;;;;;6.55;0.65;;;8.90;99.90;;;;;;5002303;28;20026;-75
2023/05/29 04:00:48;;;;;;;6.65;0.52;;;9.00;99.90;;;;;;5002894;28;20030;-76
2023/05/29 04:03:16;;;;;;;11.50;1.08;;;8.90;99.90;;;;;;5002477;28;20035;-77
2023/05/29 04:05:41;;;;;;;10.07;0.70;;;8.90;99.90;;;;;;5002943;28;20135;-76
2023/05/29 04:08:08;;;;;;;7.95;0.70;;;8.90;99.90;;;;;;4999725;28;20027;-75
2023/05/29 04:10:34;;;;;;;7.90;0.95;;;9.00;99.90;;;;;;5001728;28;20053;-78
2023/05/29 04:13:00;;;;;;;10.48;0.95;;;9.00;99.90;;;;;;5003745;28;20046;-79
2023/05/29 04:15:27;;;;;;;6.03;0.60;;;9.00;99.90;;;;;;4984394;28;20026;-78
2023/05/29 04:17:54;;;;;;;8.90;0.85;;;9.00;99.90;;;;;;4989255;28;20025;-79
2023/05/29 04:20:20;;;;;;;8.93;0.88;;;9.00;99.90;;;;;;4985470;28;20030;-78
2023/05/29 04:22:46;;;;;;;7.13;0.50;;;9.00;99.90;;;;;;5002886;28;20387;-78
2023/05/29 04:25:12;;;;;;;9.48;0.55;;;9.10;99.90;;;;;;4999530;28;20022;-79
2023/05/29 04:27:38;;;;;;;8.35;0.55;;;9.10;99.90;;;;;;5003753;28;20076;-78
2023/05/29 04:30:07;;;;;;;9.50;0.70;;;9.20;99.90;;;;;;4987331;28;20026;-78
2023/05/29 04:32:38;;;;;;;7.38;1.02;;;9.20;99.90;;;;;;5020555;28;20080;-79
2023/05/29 04:35:04;;;;;;;12.50;1.40;;;9.20;99.90;;;;;;5003601;28;20087;-78
2023/05/29 04:37:38;;;;;;;6.53;0.50;;;9.30;99.90;;;;;;5002071;28;20068;-76
2023/05/29 04:40:08;;;;;;;7.60;0.60;;;9.30;99.90;;;;;;4999722;28;20084;-79
2023/05/29 04:42:40;;;;;;;5.38;0.45;;;9.50;99.90;;;;;;5006051;28;20034;-78
2023/05/29 04:45:06;;;;;;;6.78;0.60;;;9.50;99.90;;;;;;5005289;28;20034;-78
2023/05/29 04:47:36;;;;;;;9.00;0.70;;;9.60;99.90;;;;;;5002857;28;20536;-78
2023/05/29 04:50:02;;;;;;;9.90;0.77;;;9.60;99.90;;;;;;5006431;28;20370;-75
2023/05/29 04:52:28;;;;;;;4.38;0.40;;;9.70;99.90;;;;;;4999745;28;20379;-78
2023/05/29 04:54:56;;;;;;;8.77;1.00;;;9.80;99.90;;;;;;4998298;28;20018;-78
2023/05/29 04:57:22;;;;;;;10.82;0.98;;;9.80;99.90;;;;;;4999412;28;20029;-76
2023/05/29 04:59:48;;;;;;;7.68;0.70;;;9.70;99.90;;;;;;5005154;28;20049;-76
2023/05/29 05:02:14;;;;;;;4.15;0.40;;;9.70;99.90;;;;;;4989309;28;20054;-79
2023/05/29 05:04:40;;;;;;;8.23;0.68;;;9.70;99.90;;;;;;5000824;28;20030;-79
2023/05/29 05:07:06;;;;;;;5.75;0.52;;;9.70;99.90;;;;;;4986490;28;20049;-79
2023/05/29 05:09:32;;;;;;;7.43;0.98;;;9.80;99.90;;;;;;5000922;28;20479;-78
2023/05/29 05:11:58;;;;;;;9.38;0.80;;;9.90;99.90;;;;;;5000898;28;20441;-79
2023/05/29 05:14:24;;;;;;;13.27;1.02;;;9.90;99.90;;;;;;5000754;28;20038;-78
2023/05/29 05:16:50;;;;;;;8.98;0.93;;;10.00;99.90;;;;;;5005902;28;20057;-79
2023/05/29 05:19:16;;;;;;;7.72;0.50;;;10.00;99.90;;;;;;4989495;28;20096;-79
2023/05/29 05:21:43;;;;;;;7.95;0.73;;;10.10;99.90;;;;;;5012444;28;20030;-77
2023/05/29 05:24:09;;;;;;;12.25;1.27;;;10.10;99.90;;;;;;5002065;28;20041;-79
2023/05/29 05:26:38;;;;;;;6.78;0.82;;;10.20;99.90;;;;;;5004288;28;20032;-77
2023/05/29 05:29:05;;;;;;;10.70;0.80;;;10.30;99.90;;;;;;5008533;28;20417;-79
2023/05/29 05:31:32;;;;;;;11.68;0.82;;;10.40;99.90;;;;;;5021014;28;20048;-79
2023/05/29 05:33:58;;;;;;;10.80;0.95;;;10.50;99.90;;;;;;4993392;28;20038;-78
2023/05/29 05:36:24;;;;;;;6.65;0.60;;;10.50;99.90;;;;;;5005448;28;20077;-79
2023/05/29 05:38:56;;;;;;;11.90;1.10;;;10.70;99.90;;;;;;5021442;28;20029;-78
2023/05/29 05:41:22;;;;;;;7.28;0.77;;;10.80;99.90;;;;;;4987843;28;20466;-76
2023/05/29 05:43:49;;;;;;;7.45;0.50;;;10.90;99.90;;;;;;5007554;28;20541;-78
2023/05/29 05:46:44;;;;;;;7.95;1.10;;;11.00;99.90;;;;;;5006257;28;20032;-78
2023/05/29 05:49:11;;;;;;;9.18;0.80;;;11.10;99.90;;;;;;4989452;28;20112;-79
2023/05/29 05:51:37;;;;;;;10.15;0.82;;;11.10;99.90;;;;;;4989840;28;20532;-79
2023/05/29 05:54:02;;;;;;;11.52;0.60;;;11.40;99.90;;;;;;4988431;28;20034;-79
2023/05/29 05:56:30;;;;;;;13.18;1.05;;;11.50;99.90;;;;;;4998848;28;20121;-78
2023/05/29 05:58:56;;;;;;;6.13;0.57;;;11.50;99.90;;;;;;4992102;28;20116;-78
2023/05/29 06:01:22;;;;;;;5.65;0.50;;;11.80;99.90;;;;;;4992754;28;20030;-78
2023/05/29 06:03:49;;;;;;;8.27;0.50;;;12.00;99.90;;;;;;5006819;28;20531;-78
2023/05/29 06:06:14;;;;;;;6.50;0.40;;;12.10;99.90;;;;;;5019655;28;20018;-78
2023/05/29 06:08:43;;;;;;;3.78;0.40;;;12.30;99.90;;;;;;5005471;28;20022;-78
2023/05/29 06:11:09;;;;;;;5.65;0.40;;;12.50;99.90;;;;;;4991996;28;20064;-76
2023/05/29 06:13:37;;;;;;;4.30;0.50;;;12.80;99.90;;;;;;4988424;28;20050;-78
2023/05/29 06:16:07;;;;;;;4.85;0.50;;;12.60;99.90;;;;;;4992456;28;20289;-79
2023/05/29 06:18:34;;;;;;;7.63;0.55;;;12.70;99.90;;;;;;4989735;28;20453;-75
2023/05/29 06:21:00;;;;;;;4.72;0.50;;;13.00;99.90;;;;;;4990374;28;20122;-76
2023/05/29 06:23:26;;;;;;;5.10;0.50;;;13.10;99.90;;;;;;4989561;28;20145;-76
2023/05/29 06:25:52;;;;;;;4.97;0.40;;;13.10;99.90;;;;;;4992286;28;20118;-76
2023/05/29 06:28:19;;;;;;;6.93;0.60;;;13.20;99.90;;;;;;4991972;28;20080;-76
2023/05/29 06:30:45;;;;;;;5.40;0.50;;;13.30;99.90;;;;;;5002794;28;20022;-76
2023/05/29 06:33:11;;;;;;;5.32;0.55;;;13.10;99.90;;;;;;5004915;28;20122;-76
2023/05/29 06:35:39;;;;;;;6.22;0.77;;;13.30;99.90;;;;;;5005647;28;20022;-76
2023/05/29 06:38:05;;;;;;;7.35;0.65;;;13.50;99.90;;;;;;5007175;28;20029;-77
2023/05/29 06:40:31;;;;;;;8.75;0.50;;;13.60;99.90;;;;;;5004085;28;20026;-77
2023/05/29 06:42:57;;;;;;;5.47;0.50;;;13.50;99.90;;;;;;5005448;28;20056;-77
2023/05/29 06:45:36;;;;;;;7.90;0.53;;;13.50;99.90;;;;;;5002841;28;20026;-79
2023/05/29 06:48:02;;;;;;;6.38;0.88;;;13.50;99.90;;;;;;4989021;28;20052;-79
2023/05/29 06:50:28;;;;;;;6.80;0.65;;;13.70;99.90;;;;;;5004362;28;20540;-76
2023/05/29 06:52:57;;;;;;;9.13;0.70;;;14.10;99.90;;;;;;4991116;28;20033;-80
2023/05/29 06:55:26;;;;;;;7.47;0.50;;;14.20;99.90;;;;;;5003989;28;20022;-77
2023/05/29 06:57:55;;;;;;;5.82;0.40;;;14.00;99.90;;;;;;5004949;28;20061;-78
2023/05/29 07:00:22;;;;;;;5.45;0.60;;;14.10;99.90;;;;;;5004880;28;20494;-79
2023/05/29 07:02:57;;;;;;;5.53;0.52;;;14.20;99.90;;;;;;4991488;28;20040;-78
2023/05/29 07:05:23;;;;;;;9.18;0.65;;;14.30;99.90;;;;;;5018228;28;20017;-76
2023/05/29 07:07:49;;;;;;;7.30;0.70;;;14.60;99.90;;;;;;5007447;28;20121;-80
2023/05/29 07:10:15;;;;;;;4.80;0.70;;;14.80;99.90;;;;;;5004538;28;20347;-78
2023/05/29 07:12:41;;;;;;;5.85;0.40;;;14.90;99.90;;;;;;5002306;28;20113;-78
2023/05/29 07:15:10;;;;;;;7.50;0.70;;;14.70;99.90;;;;;;4986736;28;20184;-76
2023/05/29 07:17:37;;;;;;;6.25;0.40;;;14.60;99.90;;;;;;4991346;28;20533;-78
2023/05/29 07:20:14;;;;;;;8.88;0.70;;;14.60;99.90;;;;;;5017103;28;20079;-78
2023/05/29 07:22:40;;;;;;;10.93;0.70;;;14.50;99.90;;;;;;5006143;28;20505;-78
2023/05/29 07:25:06;;;;;;;3.85;0.40;;;14.40;99.90;;;;;;5002021;28;20034;-77
2023/05/29 07:27:33;;;;;;;5.43;0.80;;;14.70;99.90;;;;;;5006430;28;20022;-78
2023/05/29 07:29:59;;;;;;;6.05;0.45;;;14.70;99.90;;;;;;5002492;28;20177;-78
2023/05/29 07:32:25;;;;;;;5.32;0.98;;;14.70;99.90;;;;;;5005119;28;20128;-77
2023/05/29 07:34:51;;;;;;;4.63;0.40;;;15.00;99.90;;;;;;5018668;28;20026;-78
2023/05/29 07:37:18;;;;;;;3.70;0.52;;;15.40;99.90;;;;;;5004252;28;20031;-77
2023/05/29 07:39:44;;;;;;;3.85;0.40;;;15.60;99.90;;;;;;4987112;28;20045;-78
2023/05/29 07:42:30;;;;;;;2.97;0.43;;;15.50;99.90;;;;;;5009995;28;20046;-77
2023/05/29 07:44:56;;;;;;;5.47;0.45;;;15.60;99.90;;;;;;5004942;28;20052;-77
2023/05/29 07:47:22;;;;;;;5.22;0.50;;;15.80;99.90;;;;;;5002815;28;20042;-78
2023/05/29 07:49:48;;;;;;;7.88;0.60;;;15.00;99.90;;;;;;5006224;28;20022;-80
2023/05/29 07:52:14;;;;;;;6.57;0.70;;;15.40;99.90;;;;;;5003877;28;20057;-78
2023/05/29 07:54:41;;;;;;;6.05;0.45;;;15.40;99.90;;;;;;5006551;28;20029;-77
2023/05/29 07:57:11;;;;;;;4.20;0.82;;;16.00;99.90;;;;;;4990106;28;20038;-79
2023/05/29 07:59:42;;;;;;;5.32;0.95;;;16.00;99.90;;;;;;5010469;28;20034;-78
2023/05/29 08:02:09;;;;;;;3.33;0.40;;;16.40;99.90;;;;;;4989545;28;20088;-77
2023/05/29 08:05:08;;;;;;;3.03;0.40;;;16.30;99.90;;;;;;5005267;28;20026;-77
2023/05/29 08:07:36;;;;;;;4.03;0.50;;;16.60;99.90;;;;;;5004931;28;20116;-77
2023/05/29 08:10:02;;;;;;;4.78;0.50;;;16.10;99.90;;;;;;4989053;28;20449;-77
2023/05/29 08:12:28;;;;;;;7.38;0.73;;;16.30;99.90;;;;;;4972229;28;20116;-78
2023/05/29 08:14:56;;;;;;;3.15;0.52;;;16.30;99.90;;;;;;5005197;28;20120;-78
2023/05/29 08:17:22;;;;;;;5.50;0.40;;;16.20;99.90;;;;;;4986573;28;20036;-76
2023/05/29 08:19:48;;;;;;;6.20;0.50;;;16.00;99.90;;;;;;5005448;28;20393;-76
2023/05/29 08:22:15;;;;;;;6.57;0.70;;;16.40;99.90;;;;;;5005854;28;20050;-77
2023/05/29 08:24:40;;;;;;;7.43;0.68;;;15.80;99.90;;;;;;4988812;28;20029;-76
2023/05/29 08:27:06;;;;;;;5.47;0.50;;;16.00;99.90;;;;;;5004142;28;20046;-77
2023/05/29 08:29:32;;;;;;;4.93;0.52;;;16.20;99.90;;;;;;5003511;28;20030;-77
2023/05/29 08:31:57;;;;;;;5.15;0.60;;;16.00;99.90;;;;;;4987965;28;20038;-77
2023/05/29 08:34:23;;;;;;;6.90;0.50;;;16.00;99.90;;;;;;5005334;28;20045;-78
2023/05/29 08:36:51;;;;;;;4.22;0.50;;;16.50;99.90;;;;;;5004801;28;20034;-77
2023/05/29 08:39:17;;;;;;;5.65;0.93;;;16.10;99.90;;;;;;5005000;28;20422;-77
2023/05/29 08:42:04;;;;;;;6.88;0.70;;;16.10;99.90;;;;;;5000017;28;20136;-78
2023/05/29 08:44:34;;;;;;;9.88;1.23;;;16.40;99.90;;;;;;5003415;28;20095;-77
2023/05/29 08:47:05;;;;;;;5.10;0.60;;;16.00;99.90;;;;;;5000704;28;20030;-77
2023/05/29 08:49:40;;;;;;;4.68;0.40;;;16.30;99.90;;;;;;5005378;28;20101;-77
2023/05/29 08:52:15;;;;;;;2.42;0.40;;;16.10;99.90;;;;;;4999036;28;20095;-77
2023/05/29 08:54:41;;;;;;;4.45;0.45;;;16.90;99.90;;;;;;5000020;28;20388;-77
2023/05/29 08:57:08;;;;;;;5.47;0.40;;;16.70;99.90;;;;;;4999200;28;20026;-77
2023/05/29 08:59:35;;;;;;;7.15;0.63;;;16.50;99.90;;;;;;5005284;28;20137;-78
2023/05/29 09:02:00;;;;;;;6.13;0.63;;;16.40;99.90;;;;;;5005571;28;20128;-77
2023/05/29 09:04:30;;;;;;;5.43;0.50;;;16.40;99.90;;;;;;5001114;28;20541;-77
2023/05/29 09:06:57;;;;;;;6.80;0.68;;;16.50;99.90;;;;;;4997775;28;20031;-77
2023/05/29 09:09:23;;;;;;;3.40;0.50;;;16.50;99.90;;;;;;5007525;28;20042;-77
2023/05/29 09:11:49;;;;;;;5.45;0.40;;;17.10;99.90;;;;;;5009478;28;20025;-78
2023/05/29 09:14:34;;;;;;;7.30;0.70;;;17.20;99.90;;;;;;4993025;28;20046;-78
2023/05/29 09:17:00;;;;;;;3.92;0.65;;;16.80;99.90;;;;;;5007326;28;20032;-78
2023/05/29 09:19:26;;;;;;;3.78;0.50;;;16.60;99.90;;;;;;5008979;28;20505;-77
2023/05/29 09:21:59;;;;;;;7.85;0.77;;;17.20;99.90;;;;;;4989076;28;20048;-77
2023/05/29 09:24:27;;;;;;;5.65;0.50;;;16.40;99.90;;;;;;5006446;28;20482;-78
2023/05/29 09:26:53;;;;;;;3.08;0.40;;;16.80;99.90;;;;;;5008011;28;20030;-78
2023/05/29 09:29:20;;;;;;;4.15;0.45;;;17.50;99.90;;;;;;5005622;28;20509;-77
2023/05/29 09:31:49;;;;;;;4.70;0.52;;;17.40;99.90;;;;;;4991897;28;20023;-78
2023/05/29 09:34:15;;;;;;;6.18;0.60;;;17.30;99.90;;;;;;4990979;28;20463;-77
2023/05/29 09:36:41;;;;;;;3.42;0.45;;;17.30;99.90;;;;;;5004700;28;20057;-77
2023/05/29 09:39:09;;;;;;;5.90;0.40;;;17.90;99.90;;;;;;5009051;28;20121;-77
2023/05/29 09:41:45;;;;;;;3.97;0.45;;;18.20;99.90;;;;;;5004291;28;20030;-77
2023/05/29 09:44:15;;;;;;;4.60;0.50;;;17.90;99.90;;;;;;4998605;28;20042;-79
2023/05/29 09:46:42;;;;;;;2.83;0.40;;;17.70;99.90;;;;;;5006312;28;20123;-77
2023/05/29 09:49:16;;;;;;;6.10;0.50;;;18.00;99.90;;;;;;4991146;28;20042;-77
2023/05/29 09:51:47;;;;;;;3.30;0.70;;;17.80;99.90;;;;;;5015590;28;20141;-78
2023/05/29 09:54:17;;;;;;;3.50;0.50;;;17.90;99.90;;;;;;5022076;28;20021;-78
2023/05/29 09:56:44;;;;;;;5.15;0.50;;;17.60;99.90;;;;;;5004450;28;20033;-78
2023/05/29 09:59:11;;;;;;;5.57;0.60;;;17.70;99.90;;;;;;5006675;28;20026;-78
2023/05/29 10:01:41;;;;;;;4.07;0.40;;;18.00;99.90;;;;;;5007363;28;20038;-79
2023/05/29 10:04:07;;;;;;;;;;;18.20;99.90;;;;;;5016350;28;20364;-78
2023/05/29 10:06:36;;;;;;;4.75;0.50;;;17.90;99.90;;;;;;5005655;28;19910;-78
2023/05/29 10:09:05;;;;;;;5.22;0.52;;;17.80;99.90;;;;;;5005573;28;20029;-78
2023/05/29 10:11:32;;;;;;;3.30;0.30;;;18.50;99.90;;;;;;4981892;28;20056;-78
2023/05/29 10:14:00;;;;;;;4.97;0.45;;;19.00;99.90;;;;;;5007785;28;20724;-77
2023/05/29 10:16:26;;;;;;;5.50;0.65;;;18.50;99.90;;;;;;5006406;28;20084;-78
2023/05/29 10:18:59;;;;;;;5.55;0.75;;;18.20;99.90;;;;;;5021321;28;20022;-77
2023/05/29 10:21:28;;;;;;;3.90;0.60;;;18.00;99.90;;;;;;5002329;28;20054;-78
2023/05/29 10:23:56;;;;;;;2.28;0.40;;;18.10;99.90;;;;;;5004164;28;20132;-78
2023/05/29 10:26:26;;;;;;;3.05;0.40;;;18.50;99.90;;;;;;5006375;28;20034;-78
2023/05/29 10:29:01;;;;;;;6.30;0.60;;;17.90;99.90;;;;;;5004174;28;20030;-78
2023/05/29 10:31:56;;;;;;;3.90;0.50;;;17.50;99.90;;;;;;5003565;28;20041;-78
2023/05/29 10:34:43;;;;;;;4.43;0.50;;;17.90;99.90;;;;;;5016543;28;20034;-78
2023/05/29 10:37:26;;;;;;;7.35;0.70;;;17.70;99.90;;;;;;5013611;28;20095;-78
2023/05/29 10:39:52;;;;;;;4.05;0.47;;;17.60;99.90;;;;;;5000163;28;20478;-78
2023/05/29 10:42:45;;;;;;;2.35;0.30;;;18.00;99.90;;;;;;4989572;28;20083;-78
2023/05/29 10:45:31;;;;;;;5.07;0.55;;;18.80;99.90;;;;;;5006410;28;20043;-79
2023/05/29 10:48:12;;;;;;;6.15;0.73;;;19.10;99.90;;;;;;5006975;28;20467;-78
2023/05/29 10:50:43;;;;;;;6.05;0.60;;;18.70;99.90;;;;;;5002070;28;20025;-79
2023/05/29 10:53:10;;;;;;;5.35;0.60;;;18.40;99.90;;;;;;5005141;28;20022;-78
2023/05/29 10:55:40;;;;;;;4.60;0.70;;;17.80;99.90;;;;;;5002246;28;20030;-77
2023/05/29 10:58:11;;;;;;;;;;;18.40;99.90;;;;;;5020584;28;20379;-78
2023/05/29 11:00:41;;;;;;;4.63;0.52;;;19.00;99.90;;;;;;5020014;28;19916;-79
2023/05/29 11:03:10;;;;;;;5.78;0.40;;;19.40;99.90;;;;;;5005507;28;20030;-78
2023/05/29 11:06:01;;;;;;;3.73;0.40;;;19.40;99.90;;;;;;5003353;28;20026;-79
2023/05/29 11:08:46;;;;;;;1.60;0.30;;;19.20;99.90;;;;;;5006790;28;20030;-80
2023/05/29 11:11:13;;;;;;;2.83;0.50;;;19.50;99.90;;;;;;5003703;28;20026;-79
2023/05/29 11:13:40;;;;;;;4.10;0.40;;;19.70;99.90;;;;;;5005971;28;20050;-79
2023/05/29 11:16:35;;;;;;;3.60;0.50;;;19.80;99.90;;;;;;5007082;28;20037;-78
2023/05/29 11:19:06;;;;;;;5.88;0.60;;;19.50;99.90;;;;;;5019491;28;20112;-79
2023/05/29 11:21:47;;;;;;;4.20;0.50;;;18.50;99.90;;;;;;5004817;28;20022;-79
2023/05/29 11:24:25;;;;;;;3.35;0.40;;;18.60;99.90;;;;;;5006798;28;20038;-79
2023/05/29 11:26:55;;;;;;;2.05;0.43;;;19.50;99.90;;;;;;5018500;28;20033;-79
2023/05/29 11:29:23;;;;;;;8.40;0.93;;;19.50;99.90;;;;;;5003074;28;20061;-78
2023/05/29 11:31:55;;;;;;;5.28;0.50;;;18.40;99.90;;;;;;5006422;28;20039;-79
2023/05/29 11:34:22;;;;;;;4.93;0.50;;;18.50;99.90;;;;;;5003675;28;20026;-79
2023/05/29 11:36:51;;;;;;;5.70;0.80;;;18.40;99.90;;;;;;5006110;28;20021;-79
2023/05/29 11:39:16;;;;;;;6.00;0.70;;;18.70;99.90;;;;;;5006083;28;20108;-79
2023/05/29 11:41:42;;;;;;;6.75;0.85;;;18.70;99.90;;;;;;5001237;28;20129;-79
2023/05/29 11:44:08;;;;;;;2.55;0.40;;;19.30;99.90;;;;;;4989025;28;20049;-79
2023/05/29 11:46:34;;;;;;;5.70;0.55;;;19.90;99.90;;;;;;5019672;28;20045;-78
2023/05/29 11:49:00;;;;;;;7.32;0.50;;;19.60;99.90;;;;;;5002096;28;20483;-78
2023/05/29 11:51:27;;;;;;;5.20;0.60;;;19.30;99.90;;;;;;5018461;28;20057;-78
2023/05/29 11:53:57;;;;;;;1.92;0.32;;;19.90;99.90;;;;;;5005561;28;20050;-78
2023/05/29 11:56:25;;;;;;;5.55;0.50;;;19.70;99.90;;;;;;5001693;28;20029;-79
2023/05/29 11:58:51;;;;;;;4.03;0.50;;;19.20;99.90;;;;;;5016735;28;20481;-78
2023/05/29 12:01:18;;;;;;;4.97;0.60;;;19.10;99.90;;;;;;5004676;28;20053;-79
2023/05/29 12:03:44;;;;;;;4.25;0.50;;;19.10;99.90;;;;;;4999360;28;20050;-78
2023/05/29 12:06:10;;;;;;;6.13;0.70;;;19.30;99.90;;;;;;5006447;28;20030;-79
2023/05/29 12:08:37;;;;;;;4.32;0.50;;;19.40;99.90;;;;;;5003594;28;20044;-79
2023/05/29 12:11:03;;;;;;;7.25;0.80;;;19.20;99.90;;;;;;4989245;28;20037;-78
2023/05/29 12:13:29;;;;;;;4.78;0.55;;;19.00;99.90;;;;;;5004107;28;20050;-78
2023/05/29 12:15:58;;;;;;;2.83;0.40;;;19.30;99.90;;;;;;5003651;28;20156;-79
2023/05/29 12:18:24;;;;;;;2.05;0.40;;;19.60;99.90;;;;;;5001900;28;20034;-79
2023/05/29 12:20:50;;;;;;;3.42;0.40;;;19.70;99.90;;;;;;5005233;28;20127;-78
2023/05/29 12:23:20;;;;;;;3.90;0.60;;;19.50;99.90;;;;;;5005105;28;20089;-79
2023/05/29 12:25:46;;;;;;;2.20;0.45;;;18.90;99.90;;;;;;5003361;28;20075;-78
2023/05/29 12:28:20;;;;;;;3.83;0.50;;;19.30;99.90;;;;;;4988461;28;20034;-79
2023/05/29 12:30:49;;;;;;;3.47;0.40;;;19.20;99.90;;;;;;5002361;28;20034;-78
2023/05/29 12:33:29;;;;;;;2.67;0.40;;;19.50;99.90;;;;;;4988745;28;20030;-78
2023/05/29 12:36:00;;;;;;;5.38;0.52;;;19.40;99.90;;;;;;5009101;28;20025;-78
2023/05/29 12:38:27;;;;;;;8.15;0.88;;;19.90;99.90;;;;;;4998376;28;20033;-79
2023/05/29 12:40:53;;;;;;;5.95;0.40;;;19.20;99.90;;;;;;5005943;28;20026;-78
2023/05/29 12:43:19;;;;;;;5.38;0.50;;;19.60;99.90;;;;;;5009301;28;20046;-78
2023/05/29 12:45:45;;;;;;;3.10;0.60;;;19.50;99.90;;;;;;5007458;28;20071;-79
2023/05/29 12:48:11;;;;;;;4.22;0.43;;;19.90;99.90;;;;;;5001896;28;20037;-79
2023/05/29 12:50:40;;;;;;;2.92;0.43;;;20.50;99.90;;;;;;5004686;28;20029;-79
2023/05/29 12:53:14;;;;;;;3.60;0.40;;;20.10;99.90;;;;;;5005230;28;20482;-79
2023/05/29 12:55:41;;;;;;;7.07;0.70;;;20.10;99.90;;;;;;5004416;28;20038;-79